Verdigre, Nebraska
Current Conditions -  °F | °C
As of 12:55 PM on Monday 20 Oct 2014 (Local Time) from KONL Reporting Station
Clear Clear  
Wind Chill: 67°   Ceiling: Unl
Heat Index: 67°   Visibility: 10mi
Dew Point: 40°   Wind: 5mph
Humidity: 36%   Direction: 170°S
Pressure: 30.13"   Gusts: NA
Location:  42.6°N, 98.03°W
Report Text: KONL 201755Z AUTO 17004KT 10SM CLR 20/04 A3013 RMK AO2 T01960042 10196 20036
Loading
Personal Weather Stations






























Interactive Weather Map
Tropical Storm Tracking
New forecast layout! Learn more

10-Day Weather Forecast

Advertisements
Track Severe Weather on mobile